sensor_id;sensor_type;location;lat;lon;timestamp;pressure;altitude;pressure_sealevel;temperature;humidity
74230;BME280;62589;12.568;99.958;2024-01-30T00:02:05;101274.38;;;31.45;55.10
74230;BME280;62589;12.568;99.958;2024-01-30T00:04:31;101281.91;;;31.44;55.53
74230;BME280;62589;12.568;99.958;2024-01-30T00:06:58;101275.19;;;31.46;55.42
74230;BME280;62589;12.568;99.958;2024-01-30T00:09:24;101285.84;;;31.43;55.29
74230;BME280;62589;12.568;99.958;2024-01-30T00:11:57;101295.72;;;31.41;55.33
74230;BME280;62589;12.568;99.958;2024-01-30T00:14:27;101302.41;;;31.40;55.38
74230;BME280;62589;12.568;99.958;2024-01-30T00:16:53;101306.00;;;31.40;55.38
74230;BME280;62589;12.568;99.958;2024-01-30T00:19:22;101313.16;;;31.41;55.42
74230;BME280;62589;12.568;99.958;2024-01-30T00:21:55;101311.19;;;31.42;55.38
74230;BME280;62589;12.568;99.958;2024-01-30T00:24:22;101315.22;;;31.44;55.34
74230;BME280;62589;12.568;99.958;2024-01-30T00:26:49;101306.81;;;31.41;55.10
74230;BME280;62589;12.568;99.958;2024-01-30T00:29:15;101318.72;;;31.41;55.50
74230;BME280;62589;12.568;99.958;2024-01-30T00:31:45;101313.59;;;31.43;55.48
74230;BME280;62589;12.568;99.958;2024-01-30T00:34:12;101316.00;;;31.45;55.24
74230;BME280;62589;12.568;99.958;2024-01-30T00:36:38;101319.59;;;31.46;55.12
74230;BME280;62589;12.568;99.958;2024-01-30T00:39:05;101327.56;;;31.47;55.52
74230;BME280;62589;12.568;99.958;2024-01-30T00:41:38;101333.09;;;31.47;55.30
74230;BME280;62589;12.568;99.958;2024-01-30T00:44:08;101332.38;;;31.50;55.45
74230;BME280;62589;12.568;99.958;2024-01-30T00:46:34;101338.09;;;31.57;55.21
74230;BME280;62589;12.568;99.958;2024-01-30T00:49:04;101331.72;;;31.57;55.17
74230;BME280;62589;12.568;99.958;2024-01-30T00:51:31;101332.75;;;31.68;54.92
74230;BME280;62589;12.568;99.958;2024-01-30T00:54:01;101340.88;;;31.76;54.56
74230;BME280;62589;12.568;99.958;2024-01-30T00:56:28;101343.75;;;31.84;54.47
74230;BME280;62589;12.568;99.958;2024-01-30T00:58:56;101356.63;;;31.92;54.36
74230;BME280;62589;12.568;99.958;2024-01-30T01:01:22;101352.44;;;32.01;54.20
74230;BME280;62589;12.568;99.958;2024-01-30T01:03:49;101348.69;;;32.13;54.34
74230;BME280;62589;12.568;99.958;2024-01-30T01:06:19;101352.03;;;32.22;53.98
74230;BME280;62589;12.568;99.958;2024-01-30T01:08:45;101355.44;;;32.35;53.54
74230;BME280;62589;12.568;99.958;2024-01-30T01:11:29;101355.63;;;32.45;53.18
74230;BME280;62589;12.568;99.958;2024-01-30T01:13:55;101357.63;;;32.71;52.72
74230;BME280;62589;12.568;99.958;2024-01-30T01:16:22;101358.44;;;32.72;52.81
74230;BME280;62589;12.568;99.958;2024-01-30T01:18:48;101356.25;;;32.81;52.35
74230;BME280;62589;12.568;99.958;2024-01-30T01:21:15;101362.81;;;32.96;52.13
74230;BME280;62589;12.568;99.958;2024-01-30T01:23:41;101366.91;;;33.05;52.08
74230;BME280;62589;12.568;99.958;2024-01-30T01:26:08;101367.06;;;33.16;51.48
74230;BME280;62589;12.568;99.958;2024-01-30T01:28:35;101369.25;;;33.30;51.46
74230;BME280;62589;12.568;99.958;2024-01-30T01:31:05;101373.44;;;33.43;51.21
74230;BME280;62589;12.568;99.958;2024-01-30T01:33:34;101373.13;;;33.52;51.00
74230;BME280;62589;12.568;99.958;2024-01-30T01:36:03;101375.69;;;33.67;50.44
74230;BME280;62589;12.568;99.958;2024-01-30T01:38:29;101381.78;;;33.76;50.11
74230;BME280;62589;12.568;99.958;2024-01-30T01:40:56;101390.69;;;33.86;49.54
74230;BME280;62589;12.568;99.958;2024-01-30T01:43:22;101395.13;;;33.94;49.87
74230;BME280;62589;12.568;99.958;2024-01-30T01:45:49;101388.91;;;34.04;49.44
74230;BME280;62589;12.568;99.958;2024-01-30T01:48:19;101393.72;;;34.07;48.87
74230;BME280;62589;12.568;99.958;2024-01-30T01:50:46;101395.31;;;34.08;48.57
74230;BME280;62589;12.568;99.958;2024-01-30T01:53:13;101396.94;;;34.12;48.86
74230;BME280;62589;12.568;99.958;2024-01-30T01:55:43;101390.56;;;34.12;48.96
74230;BME280;62589;12.568;99.958;2024-01-30T01:58:10;101390.97;;;34.14;48.48
74230;BME280;62589;12.568;99.958;2024-01-30T02:00:39;101397.78;;;34.17;48.79
74230;BME280;62589;12.568;99.958;2024-01-30T02:03:10;101396.13;;;34.12;48.98
74230;BME280;62589;12.568;99.958;2024-01-30T02:05:50;101404.91;;;34.14;49.00
74230;BME280;62589;12.568;99.958;2024-01-30T02:08:23;101402.53;;;34.16;48.99
74230;BME280;62589;12.568;99.958;2024-01-30T02:10:50;101402.16;;;34.18;49.26
74230;BME280;62589;12.568;99.958;2024-01-30T02:13:17;101404.56;;;34.19;49.17
74230;BME280;62589;12.568;99.958;2024-01-30T02:16:02;101409.03;;;34.27;49.37
74230;BME280;62589;12.568;99.958;2024-01-30T02:18:31;101412.22;;;34.26;49.27
74230;BME280;62589;12.568;99.958;2024-01-30T02:21:07;101414.63;;;34.27;48.47
74230;BME280;62589;12.568;99.958;2024-01-30T02:23:46;101410.22;;;34.26;49.24
74230;BME280;62589;12.568;99.958;2024-01-30T02:26:22;101408.28;;;34.30;48.77
74230;BME280;62589;12.568;99.958;2024-01-30T02:28:50;101410.69;;;34.28;48.73
74230;BME280;62589;12.568;99.958;2024-01-30T02:31:20;101419.38;;;34.27;48.61
74230;BME280;62589;12.568;99.958;2024-01-30T02:33:46;101405.84;;;34.25;49.03
74230;BME280;62589;12.568;99.958;2024-01-30T02:36:13;101409.91;;;34.35;49.06
74230;BME280;62589;12.568;99.958;2024-01-30T02:38:41;101401.19;;;34.36;48.37
74230;BME280;62589;12.568;99.958;2024-01-30T02:41:07;101394.94;;;34.50;48.61
74230;BME280;62589;12.568;99.958;2024-01-30T02:43:34;101387.09;;;34.66;49.11
74230;BME280;62589;12.568;99.958;2024-01-30T02:46:01;101393.63;;;34.81;48.70
74230;BME280;62589;12.568;99.958;2024-01-30T02:48:27;101393.69;;;34.95;48.24
74230;BME280;62589;12.568;99.958;2024-01-30T02:50:54;101393.78;;;35.06;47.42
74230;BME280;62589;12.568;99.958;2024-01-30T02:53:21;101381.47;;;35.18;47.60
74230;BME280;62589;12.568;99.958;2024-01-30T02:55:47;101384.41;;;35.32;47.59
74230;BME280;62589;12.568;99.958;2024-01-30T02:58:14;101381.22;;;35.37;47.35
74230;BME280;62589;12.568;99.958;2024-01-30T03:00:41;101380.88;;;35.49;46.74
74230;BME280;62589;12.568;99.958;2024-01-30T03:03:07;101379.72;;;35.61;46.65
74230;BME280;62589;12.568;99.958;2024-01-30T03:05:33;101373.34;;;35.60;46.60
74230;BME280;62589;12.568;99.958;2024-01-30T03:08:00;101371.72;;;35.52;45.36
74230;BME280;62589;12.568;99.958;2024-01-30T03:10:26;101378.50;;;35.58;44.99
74230;BME280;62589;12.568;99.958;2024-01-30T03:12:53;101384.50;;;35.53;45.17
74230;BME280;62589;12.568;99.958;2024-01-30T03:15:19;101377.31;;;35.56;45.61
74230;BME280;62589;12.568;99.958;2024-01-30T03:17:46;101376.91;;;35.57;45.72
74230;BME280;62589;12.568;99.958;2024-01-30T03:20:12;101375.72;;;35.58;45.77
74230;BME280;62589;12.568;99.958;2024-01-30T03:22:39;101372.56;;;35.63;46.09
74230;BME280;62589;12.568;99.958;2024-01-30T03:25:06;101375.75;;;35.62;45.53
74230;BME280;62589;12.568;99.958;2024-01-30T03:27:32;101370.56;;;35.67;45.13
74230;BME280;62589;12.568;99.958;2024-01-30T03:29:59;101373.38;;;35.67;45.13
74230;BME280;62589;12.568;99.958;2024-01-30T03:32:25;101365.44;;;35.76;45.26
74230;BME280;62589;12.568;99.958;2024-01-30T03:34:52;101374.28;;;35.93;45.51
74230;BME280;62589;12.568;99.958;2024-01-30T03:37:18;101375.06;;;35.93;45.59
74230;BME280;62589;12.568;99.958;2024-01-30T03:39:45;101373.09;;;36.08;45.44
74230;BME280;62589;12.568;99.958;2024-01-30T03:42:11;101377.88;;;36.18;45.52
74230;BME280;62589;12.568;99.958;2024-01-30T03:44:37;101373.09;;;36.22;44.82
74230;BME280;62589;12.568;99.958;2024-01-30T03:47:04;101371.16;;;36.26;44.10
74230;BME280;62589;12.568;99.958;2024-01-30T03:49:30;101366.38;;;36.30;44.62
74230;BME280;62589;12.568;99.958;2024-01-30T03:51:57;101377.56;;;36.37;45.27
74230;BME280;62589;12.568;99.958;2024-01-30T03:54:23;101377.56;;;36.48;44.83
74230;BME280;62589;12.568;99.958;2024-01-30T03:56:50;101373.16;;;36.58;44.96
74230;BME280;62589;12.568;99.958;2024-01-30T03:59:16;101370.34;;;36.65;44.79
74230;BME280;62589;12.568;99.958;2024-01-30T04:01:48;101363.94;;;36.68;44.74
74230;BME280;62589;12.568;99.958;2024-01-30T04:04:14;101369.53;;;36.68;44.32
74230;BME280;62589;12.568;99.958;2024-01-30T04:06:40;101368.75;;;36.67;44.32
74230;BME280;62589;12.568;99.958;2024-01-30T04:09:07;101364.78;;;36.58;44.50
74230;BME280;62589;12.568;99.958;2024-01-30T04:11:33;101361.19;;;36.54;44.72
74230;BME280;62589;12.568;99.958;2024-01-30T04:14:00;101353.59;;;36.51;45.04
74230;BME280;62589;12.568;99.958;2024-01-30T04:16:28;101349.59;;;36.44;44.62
74230;BME280;62589;12.568;99.958;2024-01-30T04:18:54;101338.38;;;36.41;44.90
74230;BME280;62589;12.568;99.958;2024-01-30T04:21:21;101336.81;;;36.47;45.12
74230;BME280;62589;12.568;99.958;2024-01-30T04:23:48;101334.38;;;36.60;45.40
74230;BME280;62589;12.568;99.958;2024-01-30T04:26:15;101336.38;;;36.63;44.79
74230;BME280;62589;12.568;99.958;2024-01-30T04:28:42;101339.56;;;36.68;44.78
74230;BME280;62589;12.568;99.958;2024-01-30T04:31:08;101339.16;;;36.63;44.09
74230;BME280;62589;12.568;99.958;2024-01-30T04:33:34;101331.97;;;36.62;43.89
74230;BME280;62589;12.568;99.958;2024-01-30T04:36:01;101334.00;;;36.54;44.47
74230;BME280;62589;12.568;99.958;2024-01-30T04:38:28;101328.78;;;36.63;44.54
74230;BME280;62589;12.568;99.958;2024-01-30T04:40:55;101335.19;;;36.64;45.05
74230;BME280;62589;12.568;99.958;2024-01-30T04:43:22;101338.81;;;36.54;44.64
74230;BME280;62589;12.568;99.958;2024-01-30T04:45:49;101336.78;;;36.61;45.35
74230;BME280;62589;12.568;99.958;2024-01-30T04:48:16;101327.22;;;36.44;45.13
74230;BME280;62589;12.568;99.958;2024-01-30T04:50:42;101328.00;;;36.52;44.33
74230;BME280;62589;12.568;99.958;2024-01-30T04:53:09;101323.19;;;36.21;45.34
74230;BME280;62589;12.568;99.958;2024-01-30T04:55:35;101313.19;;;36.23;45.66
74230;BME280;62589;12.568;99.958;2024-01-30T04:58:02;101326.38;;;36.23;45.59
74230;BME280;62589;12.568;99.958;2024-01-30T05:00:28;101323.19;;;36.10;44.77
74230;BME280;62589;12.568;99.958;2024-01-30T05:02:55;101327.56;;;36.04;45.40
74230;BME280;62589;12.568;99.958;2024-01-30T05:05:22;101324.72;;;35.79;46.64
74230;BME280;62589;12.568;99.958;2024-01-30T05:07:48;101322.31;;;35.77;46.88
74230;BME280;62589;12.568;99.958;2024-01-30T05:10:15;101332.25;;;35.61;47.38
74230;BME280;62589;12.568;99.958;2024-01-30T05:12:41;101313.41;;;35.40;48.04
74230;BME280;62589;12.568;99.958;2024-01-30T05:15:08;101297.41;;;35.26;48.49
74230;BME280;62589;12.568;99.958;2024-01-30T05:17:35;101296.59;;;35.26;48.75
74230;BME280;62589;12.568;99.958;2024-01-30T05:20:01;101289.41;;;35.25;49.24
74230;BME280;62589;12.568;99.958;2024-01-30T05:22:28;101283.03;;;35.24;49.07
74230;BME280;62589;12.568;99.958;2024-01-30T05:24:54;101281.88;;;35.29;48.71
74230;BME280;62589;12.568;99.958;2024-01-30T05:27:21;101283.91;;;35.32;49.18
74230;BME280;62589;12.568;99.958;2024-01-30T05:29:48;101287.13;;;35.48;49.05
74230;BME280;62589;12.568;99.958;2024-01-30T05:32:15;101280.75;;;35.55;49.46
74230;BME280;62589;12.568;99.958;2024-01-30T05:34:42;101275.19;;;35.62;49.01
74230;BME280;62589;12.568;99.958;2024-01-30T05:37:08;101279.19;;;35.68;49.12
74230;BME280;62589;12.568;99.958;2024-01-30T05:39:35;101282.41;;;35.73;48.70
74230;BME280;62589;12.568;99.958;2024-01-30T05:42:01;101278.41;;;35.74;48.97
74230;BME280;62589;12.568;99.958;2024-01-30T05:44:28;101270.06;;;35.81;48.66
74230;BME280;62589;12.568;99.958;2024-01-30T05:46:54;101273.25;;;35.76;48.64
74230;BME280;62589;12.568;99.958;2024-01-30T05:49:21;101260.44;;;35.72;48.46
74230;BME280;62589;12.568;99.958;2024-01-30T05:51:47;101263.66;;;35.70;48.38
74230;BME280;62589;12.568;99.958;2024-01-30T05:54:14;101250.84;;;35.66;48.61
74230;BME280;62589;12.568;99.958;2024-01-30T05:56:40;101243.66;;;35.65;48.40
74230;BME280;62589;12.568;99.958;2024-01-30T05:59:07;101246.06;;;35.66;48.70
74230;BME280;62589;12.568;99.958;2024-01-30T06:01:33;101243.28;;;35.66;48.73
74230;BME280;62589;12.568;99.958;2024-01-30T06:04:00;101238.50;;;35.67;48.88
74230;BME280;62589;12.568;99.958;2024-01-30T06:06:27;101228.50;;;35.66;48.61
74230;BME280;62589;12.568;99.958;2024-01-30T06:08:54;101225.72;;;35.62;48.66
74230;BME280;62589;12.568;99.958;2024-01-30T06:11:22;101221.69;;;35.56;48.24
74230;BME280;62589;12.568;99.958;2024-01-30T06:13:48;101223.72;;;35.52;48.39
74230;BME280;62589;12.568;99.958;2024-01-30T06:16:15;101211.31;;;35.42;48.67
74230;BME280;62589;12.568;99.958;2024-01-30T06:18:41;101206.50;;;35.36;49.02
74230;BME280;62589;12.568;99.958;2024-01-30T06:21:08;101206.06;;;35.27;48.91
74230;BME280;62589;12.568;99.958;2024-01-30T06:23:34;101199.69;;;35.23;49.09
74230;BME280;62589;12.568;99.958;2024-01-30T06:26:01;101192.91;;;35.24;49.00
74230;BME280;62589;12.568;99.958;2024-01-30T06:28:27;101190.47;;;35.15;49.33
74230;BME280;62589;12.568;99.958;2024-01-30T06:30:54;101188.47;;;35.15;49.57
74230;BME280;62589;12.568;99.958;2024-01-30T06:33:20;101179.31;;;35.15;49.14
74230;BME280;62589;12.568;99.958;2024-01-30T06:35:46;101176.53;;;35.15;49.41
74230;BME280;62589;12.568;99.958;2024-01-30T06:38:13;101173.34;;;35.17;49.46
74230;BME280;62589;12.568;99.958;2024-01-30T06:40:42;101176.16;;;35.20;49.23
74230;BME280;62589;12.568;99.958;2024-01-30T06:43:08;101159.41;;;35.20;49.56
74230;BME280;62589;12.568;99.958;2024-01-30T06:45:35;101157.03;;;35.26;49.84
74230;BME280;62589;12.568;99.958;2024-01-30T06:48:02;101156.25;;;35.29;49.81
74230;BME280;62589;12.568;99.958;2024-01-30T06:50:28;101136.72;;;35.29;49.61
74230;BME280;62589;12.568;99.958;2024-01-30T06:52:55;101139.13;;;35.41;49.44
74230;BME280;62589;12.568;99.958;2024-01-30T06:55:21;101132.34;;;35.49;49.08
74230;BME280;62589;12.568;99.958;2024-01-30T06:57:48;101129.97;;;35.51;47.85
74230;BME280;62589;12.568;99.958;2024-01-30T07:00:15;101131.94;;;35.61;47.68
74230;BME280;62589;12.568;99.958;2024-01-30T07:02:42;101121.16;;;35.60;47.85
74230;BME280;62589;12.568;99.958;2024-01-30T07:05:09;101113.59;;;35.60;47.41
74230;BME280;62589;12.568;99.958;2024-01-30T07:07:35;101102.03;;;35.62;47.90
74230;BME280;62589;12.568;99.958;2024-01-30T07:10:02;101100.41;;;35.64;47.60
74230;BME280;62589;12.568;99.958;2024-01-30T07:12:30;101098.03;;;35.66;47.40
74230;BME280;62589;12.568;99.958;2024-01-30T07:14:57;101096.84;;;35.67;47.22
74230;BME280;62589;12.568;99.958;2024-01-30T07:17:25;101092.44;;;35.63;46.86
74230;BME280;62589;12.568;99.958;2024-01-30T07:19:51;101080.88;;;35.64;46.83
74230;BME280;62589;12.568;99.958;2024-01-30T07:22:18;101077.69;;;35.66;46.85
74230;BME280;62589;12.568;99.958;2024-01-30T07:24:44;101073.28;;;35.61;47.14
74230;BME280;62589;12.568;99.958;2024-01-30T07:27:13;101076.09;;;35.61;47.36
74230;BME280;62589;12.568;99.958;2024-01-30T07:29:40;101074.88;;;35.62;47.36
74230;BME280;62589;12.568;99.958;2024-01-30T07:32:06;101066.09;;;35.60;47.36
74230;BME280;62589;12.568;99.958;2024-01-30T07:34:33;101067.69;;;35.61;47.22
74230;BME280;62589;12.568;99.958;2024-01-30T07:36:59;101063.72;;;35.59;47.16
74230;BME280;62589;12.568;99.958;2024-01-30T07:39:26;101061.31;;;35.57;46.52
74230;BME280;62589;12.568;99.958;2024-01-30T07:41:52;101062.16;;;35.54;46.16
74230;BME280;62589;12.568;99.958;2024-01-30T07:44:19;101050.19;;;35.54;46.37
74230;BME280;62589;12.568;99.958;2024-01-30T07:46:45;101049.34;;;35.57;46.26
74230;BME280;62589;12.568;99.958;2024-01-30T07:49:11;101047.75;;;35.59;46.52
74230;BME280;62589;12.568;99.958;2024-01-30T07:51:40;101042.16;;;35.63;45.88
74230;BME280;62589;12.568;99.958;2024-01-30T07:54:07;101044.56;;;35.61;46.51
74230;BME280;62589;12.568;99.958;2024-01-30T07:56:33;101041.38;;;35.62;46.67
74230;BME280;62589;12.568;99.958;2024-01-30T07:59:00;101039.38;;;35.66;46.49
74230;BME280;62589;12.568;99.958;2024-01-30T08:01:26;101036.59;;;35.66;46.48
74230;BME280;62589;12.568;99.958;2024-01-30T08:03:53;101034.59;;;35.67;46.05
74230;BME280;62589;12.568;99.958;2024-01-30T08:06:22;101027.41;;;35.66;44.78
74230;BME280;62589;12.568;99.958;2024-01-30T08:08:48;101026.22;;;35.63;44.53
74230;BME280;62589;12.568;99.958;2024-01-30T08:11:15;101024.22;;;35.60;45.39
74230;BME280;62589;12.568;99.958;2024-01-30T08:13:41;101021.81;;;35.62;45.44
74230;BME280;62589;12.568;99.958;2024-01-30T08:16:10;101016.25;;;35.62;45.26
74230;BME280;62589;12.568;99.958;2024-01-30T08:18:37;101016.63;;;35.57;45.10
74230;BME280;62589;12.568;99.958;2024-01-30T08:21:03;101014.25;;;35.63;44.93
74230;BME280;62589;12.568;99.958;2024-01-30T08:23:30;101015.44;;;35.58;44.87
74230;BME280;62589;12.568;99.958;2024-01-30T08:25:57;101016.63;;;35.57;44.97
74230;BME280;62589;12.568;99.958;2024-01-30T08:28:24;101014.66;;;35.47;45.30
74230;BME280;62589;12.568;99.958;2024-01-30T08:30:52;101015.06;;;35.49;46.01
74230;BME280;62589;12.568;99.958;2024-01-30T08:33:18;101005.50;;;35.43;45.45
74230;BME280;62589;12.568;99.958;2024-01-30T08:35:45;101001.50;;;35.44;45.69
74230;BME280;62589;12.568;99.958;2024-01-30T08:38:11;101003.09;;;35.34;45.72
74230;BME280;62589;12.568;99.958;2024-01-30T08:40:38;101001.91;;;35.42;45.57
74230;BME280;62589;12.568;99.958;2024-01-30T08:43:05;101007.09;;;35.44;46.06
74230;BME280;62589;12.568;99.958;2024-01-30T08:45:31;100999.13;;;35.42;46.63
74230;BME280;62589;12.568;99.958;2024-01-30T08:47:58;101009.09;;;35.36;45.58
74230;BME280;62589;12.568;99.958;2024-01-30T08:50:24;101014.28;;;35.34;46.11
74230;BME280;62589;12.568;99.958;2024-01-30T08:52:51;101013.47;;;35.34;46.48
74230;BME280;62589;12.568;99.958;2024-01-30T08:55:17;101007.88;;;35.34;46.59
74230;BME280;62589;12.568;99.958;2024-01-30T08:57:44;101006.31;;;35.29;47.07
74230;BME280;62589;12.568;99.958;2024-01-30T09:00:11;101004.72;;;35.28;46.77
74230;BME280;62589;12.568;99.958;2024-01-30T09:02:39;101012.25;;;35.13;46.54
74230;BME280;62589;12.568;99.958;2024-01-30T09:05:06;101006.69;;;35.10;46.73
74230;BME280;62589;12.568;99.958;2024-01-30T09:07:32;101017.03;;;34.99;47.39
74230;BME280;62589;12.568;99.958;2024-01-30T09:10:01;101022.63;;;34.88;48.31
74230;BME280;62589;12.568;99.958;2024-01-30T09:12:28;101025.41;;;34.99;47.97
74230;BME280;62589;12.568;99.958;2024-01-30T09:14:54;101017.03;;;34.95;47.95
74230;BME280;62589;12.568;99.958;2024-01-30T09:17:21;101023.41;;;34.92;48.34
74230;BME280;62589;12.568;99.958;2024-01-30T09:19:47;101022.22;;;34.93;48.38
74230;BME280;62589;12.568;99.958;2024-01-30T09:22:14;101018.25;;;34.91;48.53
74230;BME280;62589;12.568;99.958;2024-01-30T09:24:41;101019.41;;;34.79;48.97
74230;BME280;62589;12.568;99.958;2024-01-30T09:27:07;101020.59;;;34.78;49.47
74230;BME280;62589;12.568;99.958;2024-01-30T09:29:33;101026.19;;;34.78;49.35
74230;BME280;62589;12.568;99.958;2024-01-30T09:32:02;101025.72;;;34.72;49.29
74230;BME280;62589;12.568;99.958;2024-01-30T09:34:30;101032.53;;;34.68;49.62
74230;BME280;62589;12.568;99.958;2024-01-30T09:36:58;101026.50;;;34.59;49.94
74230;BME280;62589;12.568;99.958;2024-01-30T09:39:25;101031.69;;;34.57;50.40
74230;BME280;62589;12.568;99.958;2024-01-30T09:44:26;101028.88;;;34.50;50.26
74230;BME280;62589;12.568;99.958;2024-01-30T09:46:55;101036.44;;;34.53;50.73
74230;BME280;62589;12.568;99.958;2024-01-30T09:49:22;101034.44;;;34.42;51.26
74230;BME280;62589;12.568;99.958;2024-01-30T09:51:50;101038.84;;;34.47;50.93
74230;BME280;62589;12.568;99.958;2024-01-30T09:54:18;101045.19;;;34.40;51.70
74230;BME280;62589;12.568;99.958;2024-01-30T09:56:47;101042.41;;;34.47;51.04
74230;BME280;62589;12.568;99.958;2024-01-30T09:59:14;101043.59;;;34.46;51.17
74230;BME280;62589;12.568;99.958;2024-01-30T10:01:41;101044.72;;;34.28;51.59
74230;BME280;62589;12.568;99.958;2024-01-30T10:04:08;101046.28;;;34.25;51.64
74230;BME280;62589;12.568;99.958;2024-01-30T10:06:35;101050.72;;;34.33;52.11
74230;BME280;62589;12.568;99.958;2024-01-30T10:09:02;101035.59;;;34.38;51.58
74230;BME280;62589;12.568;99.958;2024-01-30T10:11:30;101039.53;;;34.30;51.44
74230;BME280;62589;12.568;99.958;2024-01-30T10:13:57;101050.72;;;34.33;51.50
74230;BME280;62589;12.568;99.958;2024-01-30T10:16:23;101056.25;;;34.30;51.56
74230;BME280;62589;12.568;99.958;2024-01-30T10:18:50;101063.06;;;34.29;51.39
74230;BME280;62589;12.568;99.958;2024-01-30T10:21:17;101064.59;;;34.26;51.73
74230;BME280;62589;12.568;99.958;2024-01-30T10:23:43;101072.22;;;34.29;51.63
74230;BME280;62589;12.568;99.958;2024-01-30T10:26:13;101071.75;;;34.24;51.80
74230;BME280;62589;12.568;99.958;2024-01-30T10:28:39;101079.31;;;34.23;51.86
74230;BME280;62589;12.568;99.958;2024-01-30T10:31:06;101078.53;;;34.23;52.07
74230;BME280;62589;12.568;99.958;2024-01-30T10:33:32;101082.84;;;34.13;52.80
74230;BME280;62589;12.568;99.958;2024-01-30T10:36:03;101090.03;;;34.18;52.40
74230;BME280;62589;12.568;99.958;2024-01-30T10:38:31;101084.84;;;34.16;52.46
74230;BME280;62589;12.568;99.958;2024-01-30T10:40:59;101088.03;;;34.14;52.56
74230;BME280;62589;12.568;99.958;2024-01-30T10:43:35;101081.63;;;34.10;53.18
74230;BME280;62589;12.568;99.958;2024-01-30T10:48:36;101091.59;;;34.08;53.08
74230;BME280;62589;12.568;99.958;2024-01-30T10:51:10;101091.94;;;34.03;53.04
74230;BME280;62589;12.568;99.958;2024-01-30T10:53:39;101103.09;;;34.03;53.45
74230;BME280;62589;12.568;99.958;2024-01-30T10:56:06;101098.25;;;33.96;53.28
74230;BME280;62589;12.568;99.958;2024-01-30T10:58:34;101100.72;;;34.05;53.23
74230;BME280;62589;12.568;99.958;2024-01-30T11:01:01;101098.28;;;34.00;53.17
74230;BME280;62589;12.568;99.958;2024-01-30T11:03:29;101106.22;;;33.94;53.61
74230;BME280;62589;12.568;99.958;2024-01-30T11:06:00;101116.59;;;34.01;53.42
74230;BME280;62589;12.568;99.958;2024-01-30T11:08:27;101113.41;;;33.99;53.15
74230;BME280;62589;12.568;99.958;2024-01-30T11:10:57;101118.88;;;33.88;53.89
74230;BME280;62589;12.568;99.958;2024-01-30T11:13:29;101122.13;;;33.94;53.33
74230;BME280;62589;12.568;99.958;2024-01-30T11:15:59;101119.34;;;33.94;53.66
74230;BME280;62589;12.568;99.958;2024-01-30T11:18:28;101135.59;;;33.88;53.80
74230;BME280;62589;12.568;99.958;2024-01-30T11:20:59;101145.56;;;33.86;53.91
74230;BME280;62589;12.568;99.958;2024-01-30T11:23:31;101138.00;;;33.90;53.99
74230;BME280;62589;12.568;99.958;2024-01-30T11:25:59;101141.22;;;33.92;53.79
74230;BME280;62589;12.568;99.958;2024-01-30T11:28:32;101141.53;;;33.79;54.44
74230;BME280;62589;12.568;99.958;2024-01-30T11:31:04;101140.34;;;33.81;54.48
74230;BME280;62589;12.568;99.958;2024-01-30T11:33:30;101143.50;;;33.79;54.84
74230;BME280;62589;12.568;99.958;2024-01-30T11:35:58;101149.47;;;33.77;54.85
74230;BME280;62589;12.568;99.958;2024-01-30T11:38:32;101145.78;;;33.70;55.15
74230;BME280;62589;12.568;99.958;2024-01-30T11:40:59;101149.03;;;33.75;55.00
74230;BME280;62589;12.568;99.958;2024-01-30T11:43:26;101149.03;;;33.75;54.87
74230;BME280;62589;12.568;99.958;2024-01-30T11:45:53;101153.00;;;33.74;54.86
74230;BME280;62589;12.568;99.958;2024-01-30T11:48:19;101151.38;;;33.73;54.94
74230;BME280;62589;12.568;99.958;2024-01-30T11:50:46;101156.53;;;33.71;54.77
74230;BME280;62589;12.568;99.958;2024-01-30T11:53:13;101159.31;;;33.71;54.92
74230;BME280;62589;12.568;99.958;2024-01-30T11:55:39;101160.94;;;33.72;55.28
74230;BME280;62589;12.568;99.958;2024-01-30T11:58:06;101165.69;;;33.72;55.03
74230;BME280;62589;12.568;99.958;2024-01-30T12:00:33;101161.72;;;33.73;54.80
74230;BME280;62589;12.568;99.958;2024-01-30T12:03:00;101175.66;;;33.73;54.98
74230;BME280;62589;12.568;99.958;2024-01-30T12:05:28;101176.84;;;33.72;55.17
74230;BME280;62589;12.568;99.958;2024-01-30T12:07:55;101184.81;;;33.73;54.97
74230;BME280;62589;12.568;99.958;2024-01-30T12:10:24;101182.41;;;33.72;54.95
74230;BME280;62589;12.568;99.958;2024-01-30T12:12:51;101188.75;;;33.69;55.67
74230;BME280;62589;12.568;99.958;2024-01-30T12:15:20;101182.34;;;33.65;55.57
74230;BME280;62589;12.568;99.958;2024-01-30T12:17:47;101186.34;;;33.67;55.45
74230;BME280;62589;12.568;99.958;2024-01-30T12:20:17;101186.75;;;33.66;55.51
74230;BME280;62589;12.568;99.958;2024-01-30T12:22:45;101187.13;;;33.64;55.69
74230;BME280;62589;12.568;99.958;2024-01-30T12:25:13;101191.09;;;33.63;55.81
74230;BME280;62589;12.568;99.958;2024-01-30T12:27:43;101200.63;;;33.62;55.58
74230;BME280;62589;12.568;99.958;2024-01-30T12:30:11;101211.78;;;33.62;55.65
74230;BME280;62589;12.568;99.958;2024-01-30T12:32:46;101202.19;;;33.60;55.22
74230;BME280;62589;12.568;99.958;2024-01-30T12:35:20;101207.81;;;33.63;55.48
74230;BME280;62589;12.568;99.958;2024-01-30T12:37:48;101214.56;;;33.62;55.66
74230;BME280;62589;12.568;99.958;2024-01-30T12:40:15;101210.16;;;33.61;55.80
74230;BME280;62589;12.568;99.958;2024-01-30T12:42:46;101209.38;;;33.61;55.76
74230;BME280;62589;12.568;99.958;2024-01-30T12:45:14;101221.25;;;33.58;55.71
74230;BME280;62589;12.568;99.958;2024-01-30T12:47:41;101225.19;;;33.53;56.08